Time;durP1;ratioP1;P1;durP2;ratioP2;P2;SDS_P1;SDS_P2;PMS_P1;PMS_P2;Temp;Humidity;BMP_temperature;BMP_pressure;BME280_temperature;BME280_humidity;BME280_pressure;Samples;Min_cycle;Max_cycle;Signal;HPM_P1;HPM_P2
2022/11/23 00:00:57;;;;;;;5.13;2.80;;;;;;;;;;5071884;28;20200;-45
2022/11/23 00:03:23;;;;;;;4.37;3.40;;;;;;;;;;5072481;28;20227;-45
2022/11/23 00:05:49;;;;;;;6.70;3.17;;;;;;;;;;5072646;28;20249;-45
2022/11/23 00:08:15;;;;;;;5.07;2.80;;;;;;;;;;5071911;28;20592;-45
2022/11/23 00:10:42;;;;;;;5.60;2.60;;;;;;;;;;5072403;28;20445;-45
2022/11/23 00:13:08;;;;;;;4.90;2.93;;;;;;;;;;5071842;28;20199;-45
2022/11/23 00:15:34;;;;;;;6.20;2.80;;;;;;;;;;5072401;28;20199;-45
2022/11/23 00:18:01;;;;;;;4.77;2.60;;;;;;;;;;5070579;28;20200;-45
2022/11/23 00:20:27;;;;;;;3.03;2.57;;;;;;;;;;5072535;28;20199;-45
2022/11/23 00:22:53;;;;;;;5.37;2.87;;;;;;;;;;5071931;28;20227;-45
2022/11/23 00:25:19;;;;;;;5.97;3.00;;;;;;;;;;5072264;28;20206;-45
2022/11/23 00:27:46;;;;;;;5.67;3.23;;;;;;;;;;5072476;28;20192;-45
2022/11/23 00:30:13;;;;;;;6.83;2.90;;;;;;;;;;5072003;28;20548;-45
2022/11/23 00:32:39;;;;;;;5.20;3.20;;;;;;;;;;5072418;28;20192;-45
2022/11/23 00:35:05;;;;;;;3.93;2.87;;;;;;;;;;5071247;28;20441;-45
2022/11/23 00:37:31;;;;;;;5.47;2.90;;;;;;;;;;5071894;28;20226;-45
2022/11/23 00:39:57;;;;;;;4.60;3.27;;;;;;;;;;5072212;28;20458;-45
2022/11/23 00:42:23;;;;;;;5.63;3.03;;;;;;;;;;5072154;28;20618;-45
2022/11/23 00:44:50;;;;;;;4.67;2.93;;;;;;;;;;5072371;28;20235;-45
2022/11/23 00:47:16;;;;;;;4.97;3.00;;;;;;;;;;5071769;28;20303;-45
2022/11/23 00:49:42;;;;;;;3.70;2.83;;;;;;;;;;5071735;28;20258;-45
2022/11/23 00:52:08;;;;;;;5.00;3.17;;;;;;;;;;5071932;28;20238;-45
2022/11/23 00:54:34;;;;;;;4.80;3.00;;;;;;;;;;5071897;28;20642;-45
2022/11/23 00:57:00;;;;;;;5.20;2.80;;;;;;;;;;5071881;28;20239;-45
2022/11/23 00:59:28;;;;;;;5.83;2.80;;;;;;;;;;5071970;28;20662;-45
2022/11/23 01:01:55;;;;;;;4.70;2.80;;;;;;;;;;5070460;28;20437;-44
2022/11/23 01:04:21;;;;;;;3.17;2.57;;;;;;;;;;5071993;28;20251;-44
2022/11/23 01:06:47;;;;;;;8.03;3.17;;;;;;;;;;5071847;28;20434;-44
2022/11/23 01:09:14;;;;;;;3.13;2.70;;;;;;;;;;5072044;28;20458;-44
2022/11/23 01:11:41;;;;;;;6.27;2.90;;;;;;;;;;5070105;28;20195;-44
2022/11/23 01:14:07;;;;;;;4.13;3.00;;;;;;;;;;5072710;28;20195;-45
2022/11/23 01:16:34;;;;;;;5.27;3.10;;;;;;;;;;5073100;28;20203;-45
2022/11/23 01:19:02;;;;;;;3.10;2.50;;;;;;;;;;5075533;28;20465;-44
2022/11/23 01:21:29;;;;;;;4.37;2.60;;;;;;;;;;5075658;28;20437;-45
2022/11/23 01:23:56;;;;;;;5.30;2.77;;;;;;;;;;5075365;28;20231;-45
2022/11/23 01:26:22;;;;;;;5.17;2.70;;;;;;;;;;5075375;28;20676;-45
2022/11/23 01:28:48;;;;;;;4.23;2.50;;;;;;;;;;5075239;28;20947;-45
2022/11/23 01:31:15;;;;;;;4.60;2.70;;;;;;;;;;5074987;28;20437;-45
2022/11/23 01:33:41;;;;;;;2.77;2.40;;;;;;;;;;5074265;28;20252;-45
2022/11/23 01:36:12;;;;;;;4.47;2.50;;;;;;;;;;5074930;28;20461;-45
2022/11/23 01:38:39;;;;;;;3.10;2.63;;;;;;;;;;5075115;28;20448;-45
2022/11/23 01:41:05;;;;;;;4.37;2.73;;;;;;;;;;5075051;28;20593;-45
2022/11/23 01:43:31;;;;;;;8.53;2.70;;;;;;;;;;5074756;28;20485;-45
2022/11/23 01:45:57;;;;;;;4.07;2.60;;;;;;;;;;5074809;28;20199;-45
2022/11/23 01:48:25;;;;;;;2.50;2.20;;;;;;;;;;5075047;28;20452;-45
2022/11/23 01:50:52;;;;;;;4.10;2.47;;;;;;;;;;5074709;28;20239;-45
2022/11/23 01:53:20;;;;;;;4.23;2.23;;;;;;;;;;5074743;28;20219;-45
2022/11/23 01:55:47;;;;;;;4.07;2.93;;;;;;;;;;5074760;28;20208;-45
2022/11/23 01:58:14;;;;;;;2.87;2.20;;;;;;;;;;5074617;28;20227;-45
2022/11/23 02:00:41;;;;;;;4.20;2.30;;;;;;;;;;5074511;28;20249;-45
2022/11/23 02:03:08;;;;;;;4.27;3.00;;;;;;;;;;5074181;28;20224;-45
2022/11/23 02:05:37;;;;;;;5.40;2.33;;;;;;;;;;5074676;28;20195;-45
2022/11/23 02:08:04;;;;;;;2.90;2.30;;;;;;;;;;5074217;28;20224;-45
2022/11/23 02:10:31;;;;;;;2.93;2.53;;;;;;;;;;5074700;28;20438;-45
2022/11/23 02:13:00;;;;;;;3.10;2.57;;;;;;;;;;5074394;28;20933;-45
2022/11/23 02:15:26;;;;;;;3.37;2.60;;;;;;;;;;5073986;28;20270;-45
2022/11/23 02:17:52;;;;;;;4.13;2.40;;;;;;;;;;5073748;28;20199;-45
2022/11/23 02:20:18;;;;;;;3.80;2.73;;;;;;;;;;5074443;28;20192;-45
2022/11/23 02:22:51;;;;;;;4.80;2.70;;;;;;;;;;5074173;28;20869;-45
2022/11/23 02:25:21;;;;;;;4.37;2.57;;;;;;;;;;5073372;28;20324;-45
2022/11/23 02:27:49;;;;;;;4.43;2.33;;;;;;;;;;5071332;28;20282;-45
2022/11/23 02:30:15;;;;;;;4.60;2.63;;;;;;;;;;5072784;28;20570;-45
2022/11/23 02:32:42;;;;;;;2.50;2.30;;;;;;;;;;5073736;28;20204;-45
2022/11/23 02:35:09;;;;;;;3.30;2.37;;;;;;;;;;5073864;28;20210;-45
2022/11/23 02:37:36;;;;;;;2.80;2.10;;;;;;;;;;5073924;28;20241;-45
2022/11/23 02:40:04;;;;;;;7.73;2.60;;;;;;;;;;5073976;28;20213;-45
2022/11/23 02:42:30;;;;;;;4.53;2.60;;;;;;;;;;5073748;28;20207;-45
2022/11/23 02:44:59;;;;;;;2.20;2.00;;;;;;;;;;5074023;28;20430;-45
2022/11/23 02:47:25;;;;;;;2.83;2.53;;;;;;;;;;5073904;28;20438;-45
2022/11/23 02:49:51;;;;;;;4.87;2.23;;;;;;;;;;5073577;28;20243;-45
2022/11/23 02:52:18;;;;;;;3.80;2.10;;;;;;;;;;5073557;28;20190;-45
2022/11/23 02:54:44;;;;;;;4.07;2.13;;;;;;;;;;5073859;28;20290;-45
2022/11/23 02:57:10;;;;;;;3.80;2.20;;;;;;;;;;5073636;28;20196;-45
2022/11/23 02:59:36;;;;;;;3.17;2.30;;;;;;;;;;5073657;28;20242;-45
2022/11/23 03:02:04;;;;;;;3.57;2.27;;;;;;;;;;5073493;28;20446;-45
2022/11/23 03:04:30;;;;;;;3.87;1.80;;;;;;;;;;5073506;28;20231;-45
2022/11/23 03:06:56;;;;;;;5.03;2.17;;;;;;;;;;5073381;28;20291;-45
2022/11/23 03:09:24;;;;;;;3.47;2.10;;;;;;;;;;5073453;28;20582;-45
2022/11/23 03:11:51;;;;;;;3.50;2.00;;;;;;;;;;5073319;28;20662;-45
2022/11/23 03:14:17;;;;;;;3.10;1.93;;;;;;;;;;5073133;28;20195;-45
2022/11/23 03:16:43;;;;;;;2.93;2.13;;;;;;;;;;5073402;28;20436;-45
2022/11/23 03:19:10;;;;;;;2.57;2.30;;;;;;;;;;5072989;28;20241;-45
2022/11/23 03:21:36;;;;;;;6.37;2.20;;;;;;;;;;5073220;28;20299;-45
2022/11/23 03:24:02;;;;;;;3.23;2.07;;;;;;;;;;5072806;28;20492;-45
2022/11/23 03:26:28;;;;;;;2.80;2.07;;;;;;;;;;5073136;28;20440;-45
2022/11/23 03:28:54;;;;;;;3.43;2.23;;;;;;;;;;5072873;28;20434;-45
2022/11/23 03:31:20;;;;;;;2.90;2.30;;;;;;;;;;5073025;28;20199;-45
2022/11/23 03:33:46;;;;;;;4.13;2.33;;;;;;;;;;5072977;28;20893;-45
2022/11/23 03:36:14;;;;;;;4.40;2.63;;;;;;;;;;5072047;28;20246;-45
2022/11/23 03:38:40;;;;;;;7.33;2.73;;;;;;;;;;5072748;28;20295;-46
2022/11/23 03:41:06;;;;;;;5.40;2.53;;;;;;;;;;5072487;28;20291;-46
2022/11/23 03:43:32;;;;;;;4.67;2.40;;;;;;;;;;5072578;28;20527;-46
2022/11/23 03:45:58;;;;;;;8.20;2.60;;;;;;;;;;5072488;28;20203;-45
2022/11/23 03:48:24;;;;;;;5.27;2.80;;;;;;;;;;5072787;28;20202;-45
2022/11/23 03:50:50;;;;;;;6.93;2.30;;;;;;;;;;5072352;28;20242;-45
2022/11/23 03:53:17;;;;;;;3.87;2.60;;;;;;;;;;5072342;28;20975;-45
2022/11/23 03:55:45;;;;;;;3.63;2.23;;;;;;;;;;5072497;28;20207;-46
2022/11/23 03:58:11;;;;;;;3.97;2.77;;;;;;;;;;5072396;28;20203;-46
2022/11/23 04:00:37;;;;;;;5.07;2.23;;;;;;;;;;5072508;28;20437;-45
2022/11/23 04:03:03;;;;;;;4.87;2.40;;;;;;;;;;5072042;28;20222;-46
2022/11/23 04:05:29;;;;;;;6.13;2.47;;;;;;;;;;5072179;28;20199;-45
2022/11/23 04:07:55;;;;;;;5.67;2.43;;;;;;;;;;5071994;28;20831;-45
2022/11/23 04:10:23;;;;;;;4.40;2.30;;;;;;;;;;5072213;28;20279;-45
2022/11/23 04:12:50;;;;;;;4.37;2.40;;;;;;;;;;5072173;28;20434;-45
2022/11/23 04:15:16;;;;;;;5.07;2.70;;;;;;;;;;5072189;28;20191;-45
2022/11/23 04:17:43;;;;;;;5.00;2.50;;;;;;;;;;5072234;28;20273;-45
2022/11/23 04:20:09;;;;;;;5.93;2.50;;;;;;;;;;5072081;28;20658;-45
2022/11/23 04:22:35;;;;;;;4.07;2.23;;;;;;;;;;5071931;28;20472;-45
2022/11/23 04:25:01;;;;;;;4.37;2.37;;;;;;;;;;5072086;28;20314;-45
2022/11/23 04:27:28;;;;;;;7.33;2.67;;;;;;;;;;5072223;28;20245;-45
2022/11/23 04:29:54;;;;;;;6.17;2.63;;;;;;;;;;5072085;28;20235;-45
2022/11/23 04:32:20;;;;;;;4.37;3.03;;;;;;;;;;5072001;28;20555;-45
2022/11/23 04:34:46;;;;;;;3.73;2.33;;;;;;;;;;5071989;28;20245;-45
2022/11/23 04:37:12;;;;;;;5.17;2.60;;;;;;;;;;5071874;28;20249;-45
2022/11/23 04:39:38;;;;;;;4.33;2.20;;;;;;;;;;5071852;28;20249;-45
2022/11/23 04:42:04;;;;;;;4.80;2.27;;;;;;;;;;5071846;28;20200;-45
2022/11/23 04:44:32;;;;;;;3.97;2.27;;;;;;;;;;5071828;28;20223;-45
2022/11/23 04:46:58;;;;;;;4.40;2.37;;;;;;;;;;5071627;28;20521;-45
2022/11/23 04:49:24;;;;;;;5.40;2.53;;;;;;;;;;5071633;28;20322;-46
2022/11/23 04:51:50;;;;;;;3.33;2.50;;;;;;;;;;5071754;28;20199;-45
2022/11/23 04:54:16;;;;;;;7.27;2.30;;;;;;;;;;5071771;28;20214;-45
2022/11/23 04:56:42;;;;;;;4.90;2.40;;;;;;;;;;5071876;28;20666;-45
2022/11/23 04:59:08;;;;;;;5.40;2.27;;;;;;;;;;5071601;28;20202;-45
2022/11/23 05:01:35;;;;;;;5.63;2.50;;;;;;;;;;5071661;28;20203;-45
2022/11/23 05:04:01;;;;;;;8.70;2.47;;;;;;;;;;5071523;28;20269;-45
2022/11/23 05:06:27;;;;;;;5.97;2.47;;;;;;;;;;5071551;28;20196;-45
2022/11/23 05:08:53;;;;;;;5.17;2.50;;;;;;;;;;5071584;28;20269;-45
2022/11/23 05:11:19;;;;;;;2.53;2.20;;;;;;;;;;5071471;28;20590;-45
2022/11/23 05:13:45;;;;;;;3.50;2.20;;;;;;;;;;5071615;28;20646;-45
2022/11/23 05:16:11;;;;;;;3.47;2.07;;;;;;;;;;5071504;28;20445;-45
2022/11/23 05:18:39;;;;;;;6.43;2.43;;;;;;;;;;5071542;28;20242;-45
2022/11/23 05:21:05;;;;;;;3.90;2.30;;;;;;;;;;5071527;28;20333;-45
2022/11/23 05:23:31;;;;;;;5.13;2.40;;;;;;;;;;5071430;28;20318;-45
2022/11/23 05:25:57;;;;;;;6.30;2.33;;;;;;;;;;5071515;28;20231;-46
2022/11/23 05:28:23;;;;;;;6.67;2.80;;;;;;;;;;5071386;28;20781;-45
2022/11/23 05:30:49;;;;;;;5.37;2.50;;;;;;;;;;5071518;28;20208;-45
2022/11/23 05:33:15;;;;;;;3.80;2.37;;;;;;;;;;5071271;28;20932;-45
2022/11/23 05:35:43;;;;;;;5.03;2.50;;;;;;;;;;5071239;28;20445;-45
2022/11/23 05:38:09;;;;;;;4.10;2.50;;;;;;;;;;5070849;28;20204;-45
2022/11/23 05:40:35;;;;;;;6.43;2.27;;;;;;;;;;5071264;28;20565;-45
2022/11/23 05:43:01;;;;;;;6.30;2.30;;;;;;;;;;5071164;28;20232;-45
2022/11/23 05:45:27;;;;;;;4.37;2.00;;;;;;;;;;5071360;28;20199;-45
2022/11/23 05:47:54;;;;;;;4.57;2.80;;;;;;;;;;5071136;28;20229;-45
2022/11/23 05:50:20;;;;;;;3.03;2.07;;;;;;;;;;5070925;28;20235;-45
2022/11/23 05:52:47;;;;;;;4.27;2.10;;;;;;;;;;5071083;28;20203;-45
2022/11/23 05:55:14;;;;;;;6.93;2.30;;;;;;;;;;5071162;28;20673;-45
2022/11/23 05:57:40;;;;;;;4.30;2.50;;;;;;;;;;5071353;28;20203;-45
2022/11/23 06:00:09;;;;;;;4.80;2.47;;;;;;;;;;5073228;28;20837;-45
2022/11/23 06:02:35;;;;;;;5.07;2.30;;;;;;;;;;5074758;28;20226;-45
2022/11/23 06:05:01;;;;;;;4.17;1.90;;;;;;;;;;5074677;28;20442;-45
2022/11/23 06:07:27;;;;;;;6.50;3.20;;;;;;;;;;5074543;28;20252;-45
2022/11/23 06:09:54;;;;;;;3.60;2.20;;;;;;;;;;5074507;28;20223;-45
2022/11/23 06:12:20;;;;;;;4.27;1.97;;;;;;;;;;5074305;28;20306;-45
2022/11/23 06:14:46;;;;;;;4.73;2.20;;;;;;;;;;5074471;28;20690;-45
2022/11/23 06:17:12;;;;;;;5.37;2.47;;;;;;;;;;5074304;28;20572;-45
2022/11/23 06:19:38;;;;;;;4.63;2.17;;;;;;;;;;5074191;28;20200;-45
2022/11/23 06:22:04;;;;;;;4.63;2.50;;;;;;;;;;5073912;28;20222;-45
2022/11/23 06:24:30;;;;;;;11.07;2.63;;;;;;;;;;5073978;28;20232;-45
2022/11/23 06:26:57;;;;;;;3.40;2.30;;;;;;;;;;5072015;28;20210;-45
2022/11/23 06:29:23;;;;;;;3.67;2.30;;;;;;;;;;5073967;28;20291;-45
2022/11/23 06:31:49;;;;;;;5.33;2.30;;;;;;;;;;5073675;28;20253;-45
2022/11/23 06:34:16;;;;;;;9.57;2.70;;;;;;;;;;5073656;28;20203;-45
2022/11/23 06:36:42;;;;;;;4.27;2.57;;;;;;;;;;5073644;28;20227;-45
2022/11/23 06:39:08;;;;;;;5.30;2.70;;;;;;;;;;5073617;28;21001;-45
2022/11/23 06:41:34;;;;;;;3.87;2.10;;;;;;;;;;5072937;28;20682;-45
2022/11/23 06:44:02;;;;;;;6.53;2.60;;;;;;;;;;5073807;28;20227;-45
2022/11/23 06:46:28;;;;;;;3.97;2.00;;;;;;;;;;5073873;28;20202;-45
2022/11/23 06:48:54;;;;;;;3.43;2.10;;;;;;;;;;5073793;28;20282;-45
2022/11/23 06:51:21;;;;;;;5.00;2.23;;;;;;;;;;5073618;28;20245;-45
2022/11/23 06:53:47;;;;;;;5.03;2.60;;;;;;;;;;5073535;28;20253;-45
2022/11/23 06:56:13;;;;;;;4.33;2.50;;;;;;;;;;5071625;28;20780;-44
2022/11/23 06:58:39;;;;;;;4.67;2.40;;;;;;;;;;5073411;28;20203;-45
2022/11/23 07:01:07;;;;;;;5.00;2.30;;;;;;;;;;5073413;28;20253;-45
2022/11/23 07:03:34;;;;;;;5.03;2.43;;;;;;;;;;5073329;28;20592;-46
2022/11/23 07:06:03;;;;;;;3.37;2.20;;;;;;;;;;5073214;28;20195;-45
2022/11/23 07:08:29;;;;;;;4.20;2.50;;;;;;;;;;5073175;28;20454;-45
2022/11/23 07:10:59;;;;;;;4.13;2.00;;;;;;;;;;5072989;28;20261;-45
2022/11/23 07:13:25;;;;;;;5.37;2.53;;;;;;;;;;5072312;28;20188;-44
2022/11/23 07:15:51;;;;;;;5.70;2.83;;;;;;;;;;5073009;28;20218;-44
2022/11/23 07:18:18;;;;;;;4.30;2.40;;;;;;;;;;5071972;28;20192;-42
2022/11/23 07:20:44;;;;;;;5.57;2.87;;;;;;;;;;5072512;28;20381;-42
2022/11/23 07:23:11;;;;;;;4.60;2.60;;;;;;;;;;5072915;28;20496;-43
2022/11/23 07:25:38;;;;;;;4.53;2.33;;;;;;;;;;5071597;28;20646;-43
2022/11/23 07:28:05;;;;;;;4.70;2.40;;;;;;;;;;5071841;28;20441;-43
2022/11/23 07:30:31;;;;;;;6.30;2.50;;;;;;;;;;5071478;28;20670;-43
2022/11/23 07:32:58;;;;;;;6.33;2.70;;;;;;;;;;5072642;28;20438;-43
2022/11/23 07:35:26;;;;;;;3.80;2.23;;;;;;;;;;5072681;28;20562;-43
2022/11/23 07:37:52;;;;;;;4.50;2.37;;;;;;;;;;5072501;28;20214;-43
2022/11/23 07:40:18;;;;;;;3.00;2.20;;;;;;;;;;5072494;28;20192;-43
2022/11/23 07:42:44;;;;;;;4.47;2.10;;;;;;;;;;5071387;28;20198;-43
2022/11/23 07:45:10;;;;;;;6.00;2.53;;;;;;;;;;5071566;28;20253;-43
2022/11/23 07:47:36;;;;;;;4.33;2.43;;;;;;;;;;5072470;28;20204;-43
2022/11/23 07:50:03;;;;;;;2.90;2.00;;;;;;;;;;5071958;28;20231;-43
2022/11/23 07:52:30;;;;;;;3.77;2.63;;;;;;;;;;5072380;28;20187;-43
2022/11/23 07:54:56;;;;;;;5.70;2.50;;;;;;;;;;5072305;28;20572;-43
2022/11/23 07:57:23;;;;;;;6.23;2.50;;;;;;;;;;5072330;28;20214;-43
2022/11/23 07:59:49;;;;;;;3.77;2.40;;;;;;;;;;5071983;28;20191;-43
2022/11/23 08:02:15;;;;;;;6.17;2.87;;;;;;;;;;5072052;28;20196;-43
2022/11/23 08:04:41;;;;;;;4.07;2.40;;;;;;;;;;5072239;28;20230;-44
2022/11/23 08:07:07;;;;;;;7.43;2.80;;;;;;;;;;5072091;28;20313;-43
2022/11/23 08:09:34;;;;;;;4.70;2.57;;;;;;;;;;5072148;28;20718;-44
2022/11/23 08:12:01;;;;;;;4.60;2.50;;;;;;;;;;5072461;28;20686;-44
2022/11/23 08:14:27;;;;;;;4.60;2.80;;;;;;;;;;5072505;28;20985;-44
2022/11/23 08:16:53;;;;;;;6.53;2.70;;;;;;;;;;5072361;28;20199;-43
2022/11/23 08:19:19;;;;;;;3.83;2.70;;;;;;;;;;5071846;28;20245;-44
2022/11/23 08:21:45;;;;;;;4.23;2.97;;;;;;;;;;5071450;28;20192;-43
2022/11/23 08:24:11;;;;;;;5.63;2.63;;;;;;;;;;5071797;28;20220;-44
2022/11/23 08:26:38;;;;;;;5.97;2.80;;;;;;;;;;5072486;28;20196;-45
2022/11/23 08:29:04;;;;;;;6.20;2.40;;;;;;;;;;5072012;28;20234;-44
2022/11/23 08:31:31;;;;;;;8.67;2.83;;;;;;;;;;5071395;28;20207;-44
2022/11/23 08:33:57;;;;;;;8.67;2.90;;;;;;;;;;5071702;28;20231;-43
2022/11/23 08:36:23;;;;;;;4.20;2.60;;;;;;;;;;5071780;28;20654;-45
2022/11/23 08:38:53;;;;;;;4.63;2.30;;;;;;;;;;5071849;28;20199;-44
2022/11/23 08:41:19;;;;;;;5.93;2.60;;;;;;;;;;5071320;28;20282;-44
2022/11/23 08:43:47;;;;;;;6.33;2.60;;;;;;;;;;5070927;28;20705;-43
2022/11/23 08:46:13;;;;;;;7.57;2.80;;;;;;;;;;5070236;28;20223;-43
2022/11/23 08:48:39;;;;;;;4.33;2.10;;;;;;;;;;5071700;28;20257;-44
2022/11/23 08:51:05;;;;;;;4.40;2.47;;;;;;;;;;5071261;28;20200;-44
2022/11/23 08:53:31;;;;;;;4.67;2.80;;;;;;;;;;5071258;28;20195;-44
2022/11/23 08:55:59;;;;;;;4.97;2.30;;;;;;;;;;5071355;28;20204;-44
2022/11/23 08:58:25;;;;;;;3.43;2.23;;;;;;;;;;5071338;28;20183;-44
2022/11/23 09:00:53;;;;;;;5.20;2.40;;;;;;;;;;5071364;28;20199;-44
2022/11/23 09:03:19;;;;;;;4.23;2.23;;;;;;;;;;5067465;28;20230;-44
2022/11/23 09:05:45;;;;;;;8.27;2.50;;;;;;;;;;5071217;28;20657;-44
2022/11/23 09:08:11;;;;;;;3.63;2.20;;;;;;;;;;5070937;28;20284;-44
2022/11/23 09:10:37;;;;;;;4.90;2.23;;;;;;;;;;5071268;28;20206;-44
2022/11/23 09:13:03;;;;;;;4.77;2.47;;;;;;;;;;5071016;28;20677;-44
2022/11/23 09:15:29;;;;;;;5.30;2.30;;;;;;;;;;5071211;28;20203;-44
2022/11/23 09:17:57;;;;;;;4.00;2.37;;;;;;;;;;5069294;28;20294;-44
2022/11/23 09:20:23;;;;;;;4.20;2.27;;;;;;;;;;5071182;28;20321;-44
2022/11/23 09:22:51;;;;;;;5.70;2.33;;;;;;;;;;5071238;28;20316;-44
2022/11/23 09:25:17;;;;;;;4.73;2.50;;;;;;;;;;5071596;28;20231;-44
2022/11/23 09:27:43;;;;;;;5.13;2.33;;;;;;;;;;5071345;28;20670;-43
2022/11/23 09:30:10;;;;;;;6.23;2.23;;;;;;;;;;5071155;28;20199;-42
2022/11/23 09:32:36;;;;;;;4.10;2.37;;;;;;;;;;5071211;28;20666;-43
2022/11/23 09:35:03;;;;;;;8.00;2.30;;;;;;;;;;5073219;28;20191;-44
2022/11/23 09:37:29;;;;;;;4.30;2.30;;;;;;;;;;5074545;28;20192;-43
2022/11/23 09:39:55;;;;;;;4.87;2.50;;;;;;;;;;5074622;28;20202;-43
2022/11/23 09:42:30;;;;;;;4.40;2.37;;;;;;;;;;5074708;28;20218;-44
2022/11/23 09:45:05;;;;;;;4.93;2.20;;;;;;;;;;5074942;28;20225;-44
2022/11/23 09:47:41;;;;;;;5.43;2.33;;;;;;;;;;5074527;28;20191;-44
2022/11/23 09:50:12;;;;;;;3.33;2.20;;;;;;;;;;5074418;28;20265;-44
2022/11/23 09:52:40;;;;;;;6.97;2.47;;;;;;;;;;5074012;28;20196;-44
2022/11/23 09:55:11;;;;;;;3.40;1.87;;;;;;;;;;5074345;28;20192;-44
2022/11/23 09:57:40;;;;;;;4.80;1.93;;;;;;;;;;5074575;28;20228;-44
2022/11/23 10:00:07;;;;;;;9.63;2.27;;;;;;;;;;5075073;28;20286;-44
2022/11/23 10:02:36;;;;;;;3.50;2.10;;;;;;;;;;5072502;28;20191;-44
2022/11/23 10:05:03;;;;;;;4.00;1.97;;;;;;;;;;5072397;28;20280;-43
2022/11/23 10:07:40;;;;;;;5.97;2.67;;;;;;;;;;5074797;28;20230;-43
2022/11/23 10:10:11;;;;;;;3.87;2.20;;;;;;;;;;5074151;28;20203;-43
2022/11/23 10:12:44;;;;;;;6.27;2.17;;;;;;;;;;5074433;28;20658;-43
2022/11/23 10:15:13;;;;;;;4.67;2.00;;;;;;;;;;5075071;28;20202;-44
2022/11/23 10:17:51;;;;;;;3.03;1.70;;;;;;;;;;5074960;28;20195;-44
2022/11/23 10:20:21;;;;;;;4.70;2.00;;;;;;;;;;5074678;28;20206;-44
2022/11/23 10:22:52;;;;;;;4.67;2.10;;;;;;;;;;5075040;28;20614;-44
2022/11/23 10:25:19;;;;;;;4.70;2.03;;;;;;;;;;5074648;28;20254;-44
2022/11/23 10:27:46;;;;;;;3.87;1.80;;;;;;;;;;5074759;28;20204;-44
2022/11/23 10:30:13;;;;;;;5.00;1.90;;;;;;;;;;5074562;28;20295;-44
2022/11/23 10:32:43;;;;;;;5.47;1.90;;;;;;;;;;5074592;28;20558;-44
2022/11/23 10:35:11;;;;;;;2.17;1.63;;;;;;;;;;5074436;28;20226;-43
2022/11/23 10:37:38;;;;;;;3.03;1.63;;;;;;;;;;5074520;28;20204;-43
2022/11/23 10:40:11;;;;;;;5.30;1.90;;;;;;;;;;5074477;28;20211;-44
2022/11/23 10:42:40;;;;;;;2.87;1.67;;;;;;;;;;5074491;28;20203;-43
2022/11/23 10:45:18;;;;;;;4.00;1.93;;;;;;;;;;5073945;28;20230;-43
2022/11/23 10:47:49;;;;;;;3.43;1.70;;;;;;;;;;5074459;28;20205;-43
2022/11/23 10:50:24;;;;;;;3.70;1.90;;;;;;;;;;5074080;28;20285;-43
2022/11/23 10:52:51;;;;;;;3.27;2.00;;;;;;;;;;5074198;28;20666;-43
2022/11/23 10:55:19;;;;;;;3.57;1.67;;;;;;;;;;5074097;28;20223;-43
2022/11/23 10:57:46;;;;;;;2.00;1.60;;;;;;;;;;5074125;28;20195;-43
2022/11/23 11:00:14;;;;;;;4.90;1.80;;;;;;;;;;5074026;28;20686;-43
2022/11/23 11:02:41;;;;;;;4.33;1.70;;;;;;;;;;5073937;28;20207;-43
2022/11/23 11:05:21;;;;;;;3.33;1.60;;;;;;;;;;5071997;28;20223;-43
2022/11/23 11:07:47;;;;;;;3.47;1.73;;;;;;;;;;5073377;28;20206;-43
2022/11/23 11:10:28;;;;;;;4.70;1.80;;;;;;;;;;5073013;28;20215;-44
2022/11/23 11:12:55;;;;;;;2.87;1.47;;;;;;;;;;5073612;28;20291;-43
2022/11/23 11:15:22;;;;;;;3.90;1.70;;;;;;;;;;5073326;28;20274;-43
2022/11/23 11:17:54;;;;;;;3.13;1.53;;;;;;;;;;5072507;28;20199;-44
2022/11/23 11:20:30;;;;;;;7.13;1.57;;;;;;;;;;5073007;28;20861;-44
2022/11/23 11:22:56;;;;;;;3.70;1.50;;;;;;;;;;5073279;28;20195;-43
2022/11/23 11:25:28;;;;;;;3.63;1.60;;;;;;;;;;5072065;28;20372;-44
2022/11/23 11:27:55;;;;;;;2.90;1.40;;;;;;;;;;5072672;28;20640;-44
2022/11/23 11:30:22;;;;;;;3.53;1.90;;;;;;;;;;5073048;28;20352;-43
2022/11/23 11:32:52;;;;;;;4.60;1.90;;;;;;;;;;5073212;28;20192;-44
2022/11/23 11:35:25;;;;;;;3.13;1.60;;;;;;;;;;5073104;28;20203;-44
2022/11/23 11:37:52;;;;;;;5.80;1.53;;;;;;;;;;5073414;28;20593;-44
2022/11/23 11:40:23;;;;;;;5.33;1.57;;;;;;;;;;5072965;28;20209;-44
2022/11/23 11:42:52;;;;;;;5.17;1.80;;;;;;;;;;5072883;28;20195;-43
2022/11/23 11:45:21;;;;;;;6.03;2.23;;;;;;;;;;5073135;28;20227;-43
2022/11/23 11:47:51;;;;;;;6.30;2.00;;;;;;;;;;5073272;28;20203;-43
2022/11/23 11:50:20;;;;;;;4.30;1.70;;;;;;;;;;5072725;28;20701;-44
2022/11/23 11:52:48;;;;;;;6.30;2.10;;;;;;;;;;5073084;28;20246;-45
2022/11/23 11:55:16;;;;;;;2.77;1.50;;;;;;;;;;5072987;28;20290;-43
2022/11/23 11:57:45;;;;;;;2.20;1.47;;;;;;;;;;5071931;28;20198;-44
2022/11/23 12:00:13;;;;;;;4.47;1.53;;;;;;;;;;5070145;28;20199;-43
2022/11/23 12:02:43;;;;;;;4.40;1.70;;;;;;;;;;5072842;28;20290;-44
2022/11/23 12:05:11;;;;;;;4.83;1.60;;;;;;;;;;5072792;28;20258;-44
2022/11/23 12:07:41;;;;;;;5.53;1.70;;;;;;;;;;5072929;28;20223;-44
2022/11/23 12:10:12;;;;;;;4.20;1.70;;;;;;;;;;5070999;28;20612;-44
2022/11/23 12:12:39;;;;;;;4.13;1.60;;;;;;;;;;5072400;28;20199;-44
2022/11/23 12:15:06;;;;;;;4.30;1.70;;;;;;;;;;5070311;28;20646;-44
2022/11/23 12:17:40;;;;;;;4.10;1.57;;;;;;;;;;5071539;28;20191;-44
2022/11/23 12:20:12;;;;;;;4.03;1.90;;;;;;;;;;5071896;28;20244;-44
2022/11/23 12:22:43;;;;;;;5.47;1.80;;;;;;;;;;5072616;28;20211;-43
2022/11/23 12:25:13;;;;;;;5.03;1.77;;;;;;;;;;5072050;28;20227;-44
2022/11/23 12:27:46;;;;;;;2.63;1.53;;;;;;;;;;5070633;28;20245;-44
2022/11/23 12:30:16;;;;;;;2.83;1.83;;;;;;;;;;5071940;28;20550;-44
2022/11/23 12:32:46;;;;;;;3.07;1.47;;;;;;;;;;5072736;28;20215;-44
2022/11/23 12:35:29;;;;;;;3.10;1.57;;;;;;;;;;5071694;28;20204;-45
2022/11/23 12:38:02;;;;;;;2.80;1.40;;;;;;;;;;5069705;28;20203;-44
2022/11/23 12:40:43;;;;;;;2.33;1.40;;;;;;;;;;5071409;28;20682;-43
2022/11/23 12:43:12;;;;;;;5.70;1.70;;;;;;;;;;5069150;28;20565;-44
2022/11/23 12:45:45;;;;;;;4.40;2.13;;;;;;;;;;5071320;28;20219;-44
2022/11/23 12:48:18;;;;;;;3.97;1.43;;;;;;;;;;5072017;28;20203;-44
2022/11/23 12:50:50;;;;;;;1.40;1.30;;;;;;;;;;5070796;28;20576;-45
2022/11/23 12:53:22;;;;;;;3.87;1.13;;;;;;;;;;5071717;28;20257;-44
2022/11/23 12:55:53;;;;;;;2.47;1.30;;;;;;;;;;5071887;28;20199;-44
2022/11/23 12:58:23;;;;;;;2.10;1.27;;;;;;;;;;5071282;28;20256;-45
2022/11/23 13:00:51;;;;;;;2.93;1.50;;;;;;;;;;5071238;28;20776;-45
2022/11/23 13:03:31;;;;;;;2.10;1.40;;;;;;;;;;5070641;28;20196;-44
2022/11/23 13:06:12;;;;;;;5.20;1.43;;;;;;;;;;5071180;28;20264;-44
2022/11/23 13:08:57;;;;;;;3.97;1.60;;;;;;;;;;5073264;28;20306;-44
2022/11/23 13:11:33;;;;;;;1.93;1.33;;;;;;;;;;5075376;28;20198;-44
2022/11/23 13:14:08;;;;;;;2.10;1.23;;;;;;;;;;5074575;28;20269;-45
2022/11/23 13:16:45;;;;;;;3.40;1.63;;;;;;;;;;5075366;28;20775;-45
2022/11/23 13:19:18;;;;;;;4.27;1.30;;;;;;;;;;5075631;28;20570;-44
2022/11/23 13:21:46;;;;;;;3.30;1.50;;;;;;;;;;5075436;28;20270;-45
2022/11/23 13:24:33;;;;;;;3.63;1.53;;;;;;;;;;5074047;28;20273;-44
2022/11/23 13:27:29;;;;;;;3.43;1.60;;;;;;;;;;5070796;28;20594;-44
2022/11/23 13:29:59;;;;;;;2.13;1.60;;;;;;;;;;5075850;28;20196;-44
2022/11/23 13:32:34;;;;;;;4.00;1.57;;;;;;;;;;5075578;28;20200;-44
2022/11/23 13:35:01;;;;;;;3.63;1.60;;;;;;;;;;5075596;28;20191;-45
2022/11/23 13:37:28;;;;;;;6.10;1.80;;;;;;;;;;5075419;28;20554;-45
2022/11/23 13:40:02;;;;;;;4.23;1.70;;;;;;;;;;5075499;28;20684;-44
2022/11/23 13:42:31;;;;;;;2.60;1.50;;;;;;;;;;5075591;28;20207;-45
2022/11/23 13:45:13;;;;;;;2.67;1.40;;;;;;;;;;5075494;28;20207;-44
2022/11/23 13:47:39;;;;;;;2.93;1.70;;;;;;;;;;5075498;28;20199;-44
2022/11/23 13:50:17;;;;;;;2.60;1.50;;;;;;;;;;5075092;28;20234;-44
2022/11/23 13:52:49;;;;;;;3.33;1.60;;;;;;;;;;5075438;28;20207;-45
2022/11/23 13:55:19;;;;;;;3.03;1.60;;;;;;;;;;5075309;28;20200;-44
2022/11/23 13:57:47;;;;;;;3.37;1.63;;;;;;;;;;5072880;28;20184;-44
2022/11/23 14:00:32;;;;;;;2.20;1.33;;;;;;;;;;5074472;28;20204;-45
2022/11/23 14:03:12;;;;;;;4.27;1.80;;;;;;;;;;5073405;28;20523;-44
2022/11/23 14:05:56;;;;;;;3.40;1.50;;;;;;;;;;5074078;28;20684;-44
2022/11/23 14:08:24;;;;;;;3.03;1.63;;;;;;;;;;5074466;28;20934;-44
2022/11/23 14:10:51;;;;;;;4.30;1.97;;;;;;;;;;5074137;28;20199;-45
2022/11/23 14:13:19;;;;;;;3.50;1.87;;;;;;;;;;5073301;28;20207;-45
2022/11/23 14:15:51;;;;;;;2.63;1.50;;;;;;;;;;5074040;28;20200;-46
2022/11/23 14:18:27;;;;;;;2.73;1.50;;;;;;;;;;5073088;28;20290;-45
2022/11/23 14:20:56;;;;;;;4.10;2.07;;;;;;;;;;5073358;28;20654;-45
2022/11/23 14:23:43;;;;;;;4.20;1.87;;;;;;;;;;5073857;28;20215;-45
2022/11/23 14:26:15;;;;;;;7.83;1.83;;;;;;;;;;5074268;28;20257;-45
2022/11/23 14:28:48;;;;;;;4.27;2.00;;;;;;;;;;5067530;28;20200;-44
2022/11/23 14:31:20;;;;;;;4.90;2.17;;;;;;;;;;5072992;28;20665;-44
2022/11/23 14:33:49;;;;;;;6.87;2.83;;;;;;;;;;5074007;28;20279;-44
2022/11/23 14:36:19;;;;;;;3.13;1.40;;;;;;;;;;5073606;28;20195;-43
2022/11/23 14:39:04;;;;;;;8.07;2.17;;;;;;;;;;5073141;28;20684;-43
2022/11/23 14:41:35;;;;;;;6.20;2.10;;;;;;;;;;5072653;28;20658;-43
2022/11/23 14:44:01;;;;;;;5.23;1.90;;;;;;;;;;5073710;28;20298;-44
2022/11/23 14:46:27;;;;;;;3.73;1.93;;;;;;;;;;5073765;28;20200;-44
2022/11/23 14:49:02;;;;;;;4.63;1.80;;;;;;;;;;5073543;28;20650;-44